Terminal Aerodrome Forecast
Issued by NWS

Home | Current Version | Previous Version | Text Only | Print | Product List | Glossary On
Versions: 1 2 3 4 5 6 7 8 9 10 11 12 13 14 15 16 17 18 19 20 21 22 23 24 25 26 27 28 29
000
FTUS45 KSLC 032335
TAFBCE
TAF
KBCE 032335Z 0400/0424 24008KT P6SM VCSH SCT070 BKN120
     FM040100 25006KT P6SM SCT070 BKN180
     FM041800 22010KT P6SM VCSH SCT060 BKN100 PROB30 0418/0422 -TSRA
      BKN060CB=

USA.gov is the U.S. government's official web portal to all federal, state and local government web resources and services.